Time;durP1;ratioP1;P1;durP2;ratioP2;P2;SDS_P1;SDS_P2;PMS_P1;PMS_P2;Temp;Humidity;BMP_temperature;BMP_pressure;BME280_temperature;BME280_humidity;BME280_pressure;Samples;Min_cycle;Max_cycle;Signal;HPM_P1;HPM_P2
2023/10/20 00:01:10;;;;;;;5.78;3.15;;;;;;;14.34;100.00;98643.63;4971151;28;99128;-28
2023/10/20 00:03:35;;;;;;;4.65;2.75;;;;;;;14.35;100.00;98650.78;4971326;28;96586;-29
2023/10/20 00:06:00;;;;;;;5.18;2.47;;;;;;;14.37;100.00;98632.38;4970000;28;96956;-29
2023/10/20 00:08:25;;;;;;;4.88;3.05;;;;;;;14.34;100.00;98617.25;4971108;28;97851;-28
2023/10/20 00:10:52;;;;;;;5.55;2.67;;;;;;;14.34;100.00;98625.41;4971094;28;99106;-28
2023/10/20 00:13:17;;;;;;;3.40;2.30;;;;;;;14.36;100.00;98625.25;4971364;28;96998;-28
2023/10/20 00:15:46;;;;;;;5.07;3.05;;;;;;;14.40;100.00;98624.75;4971428;28;96816;-28
2023/10/20 00:18:11;;;;;;;4.43;2.92;;;;;;;14.37;100.00;98610.59;4971048;28;98212;-28
2023/10/20 00:20:37;;;;;;;5.88;3.67;;;;;;;14.37;100.00;98618.78;4970780;28;99580;-28
2023/10/20 00:23:02;;;;;;;7.97;3.17;;;;;;;14.42;100.00;98619.13;4970173;28;96695;-28
2023/10/20 00:25:28;;;;;;;5.00;2.95;;;;;;;14.40;100.00;98616.56;4971321;28;96827;-28
2023/10/20 00:27:55;;;;;;;6.07;3.25;;;;;;;14.35;100.00;98621.69;4970973;28;97999;-29
2023/10/20 00:30:20;;;;;;;6.38;3.40;;;;;;;14.44;100.00;98627.94;4970858;28;98487;-28
2023/10/20 00:32:46;;;;;;;5.22;3.13;;;;;;;14.43;100.00;98627.09;4970880;28;96760;-28
2023/10/20 00:35:13;;;;;;;5.45;3.50;;;;;;;14.41;100.00;98623.69;4970158;28;96859;-30
2023/10/20 00:37:38;;;;;;;6.45;3.63;;;;;;;14.39;100.00;98609.41;4970454;28;98896;-29
2023/10/20 00:40:08;;;;;;;6.72;2.58;;;;;;;14.40;100.00;98605.66;4971235;28;97812;-28
2023/10/20 00:42:34;;;;;;;6.40;3.22;;;;;;;14.43;100.00;98597.13;4969391;28;97119;-28
2023/10/20 00:45:00;;;;;;;5.43;2.97;;;;;;;14.39;100.00;98589.50;4969320;28;96805;-28
2023/10/20 00:47:26;;;;;;;4.65;3.08;;;;;;;14.40;100.00;98585.75;4929155;28;1197138;-28
2023/10/20 00:49:52;;;;;;;7.20;3.60;;;;;;;14.44;100.00;98590.69;4972162;28;97838;-28
2023/10/20 00:52:18;;;;;;;6.97;4.05;;;;;;;14.44;100.00;98573.47;4971704;28;96620;-29
2023/10/20 00:54:46;;;;;;;5.00;3.40;;;;;;;14.38;100.00;98564.13;4970688;28;96861;-28
2023/10/20 00:57:14;;;;;;;7.70;3.97;;;;;;;14.43;100.00;98566.34;4970543;28;99178;-28
2023/10/20 00:59:40;;;;;;;5.90;3.53;;;;;;;14.40;100.00;98567.53;4970497;28;98929;-28
2023/10/20 01:02:05;;;;;;;5.40;3.63;;;;;;;14.39;100.00;98563.09;4971847;28;97019;-28
2023/10/20 01:04:30;;;;;;;5.00;2.92;;;;;;;14.36;100.00;98565.34;4972364;28;96825;-28
2023/10/20 01:06:56;;;;;;;8.75;3.75;;;;;;;14.35;100.00;98569.94;4971786;28;97899;-28
2023/10/20 01:09:25;;;;;;;6.15;3.38;;;;;;;14.36;100.00;98576.22;4971882;28;97910;-28
2023/10/20 01:11:51;;;;;;;4.32;3.22;;;;;;;14.37;100.00;98575.19;4970001;28;96947;-28
2023/10/20 01:14:17;;;;;;;5.47;3.25;;;;;;;14.40;100.00;98572.16;4970456;28;96831;-29
2023/10/20 01:16:42;;;;;;;4.35;3.38;;;;;;;14.35;100.00;98555.44;4971563;28;103569;-28
2023/10/20 01:19:07;;;;;;;6.18;4.03;;;;;;;14.39;100.00;98565.81;4971456;28;99173;-27
2023/10/20 01:21:33;;;;;;;6.35;3.80;;;;;;;14.34;100.00;98549.16;4971914;28;96504;-29
2023/10/20 01:24:01;;;;;;;4.97;3.13;;;;;;;14.32;100.00;98537.59;4971475;28;101971;-28
2023/10/20 01:26:26;;;;;;;6.00;3.75;;;;;;;14.34;100.00;98531.97;4971577;28;98025;-28
2023/10/20 01:28:52;;;;;;;5.75;3.50;;;;;;;14.31;100.00;98535.91;4971961;28;97372;-28
2023/10/20 01:31:17;;;;;;;7.65;3.83;;;;;;;14.35;100.00;98523.66;4971514;28;96578;-28
2023/10/20 01:33:42;;;;;;;6.25;3.80;;;;;;;14.31;100.00;98511.41;4971114;28;96837;-28
2023/10/20 01:36:08;;;;;;;6.80;3.88;;;;;;;14.36;100.00;98508.16;4971158;28;103144;-28
2023/10/20 01:38:33;;;;;;;6.50;4.32;;;;;;;14.33;100.00;98503.91;4971314;28;99514;-28
2023/10/20 01:40:58;;;;;;;5.85;3.50;;;;;;;14.28;100.00;98500.88;4971476;28;96559;-28
2023/10/20 01:43:24;;;;;;;5.57;3.70;;;;;;;14.30;100.00;98490.66;4971417;28;96818;-28
2023/10/20 01:45:49;;;;;;;7.47;3.30;;;;;;;14.30;100.00;98496.09;4972841;28;97551;-28
2023/10/20 01:48:14;;;;;;;7.35;4.43;;;;;;;14.22;100.00;98499.66;4974607;28;98317;-29
2023/10/20 01:50:40;;;;;;;6.53;3.67;;;;;;;14.31;100.00;98503.22;4974496;28;96617;-28
2023/10/20 01:53:05;;;;;;;8.10;4.35;;;;;;;14.27;100.00;98481.97;4973395;28;96968;-28
2023/10/20 01:55:31;;;;;;;4.88;3.25;;;;;;;14.26;100.00;98491.16;4974739;28;97448;-28
2023/10/20 01:57:56;;;;;;;4.95;3.58;;;;;;;14.26;100.00;98486.56;4974245;28;99574;-28
2023/10/20 02:00:22;;;;;;;5.47;3.38;;;;;;;14.27;100.00;98493.69;4974234;28;96508;-28
2023/10/20 02:02:48;;;;;;;5.65;3.72;;;;;;;14.22;100.00;98469.72;4974492;28;96799;-28
2023/10/20 02:05:13;;;;;;;5.70;3.80;;;;;;;14.22;100.00;98464.28;4972764;28;101244;-28
2023/10/20 02:07:39;;;;;;;7.25;4.32;;;;;;;14.21;100.00;98454.41;4974120;28;99848;-28
2023/10/20 02:10:06;;;;;;;5.38;3.95;;;;;;;14.20;100.00;98458.16;4974421;28;96557;-29
2023/10/20 02:12:32;;;;;;;5.60;3.45;;;;;;;14.20;100.00;98455.44;4972890;28;96895;-28
2023/10/20 02:14:58;;;;;;;5.82;3.85;;;;;;;14.15;100.00;98443.38;4972888;28;101090;-28
2023/10/20 02:17:23;;;;;;;7.18;4.13;;;;;;;14.13;100.00;98437.25;4974465;28;97824;-28
2023/10/20 02:19:49;;;;;;;9.18;4.57;;;;;;;14.14;100.00;98425.38;4973959;28;96630;-28
2023/10/20 02:22:14;;;;;;;6.38;4.38;;;;;;;14.13;100.00;98423.66;4973924;28;96869;-28
2023/10/20 02:24:39;;;;;;;6.78;4.18;;;;;;;14.10;100.00;98408.53;4973571;28;97373;-28
2023/10/20 02:27:05;;;;;;;7.13;4.55;;;;;;;14.12;100.00;98413.81;4973915;28;96911;-28
2023/10/20 02:29:30;;;;;;;7.43;4.35;;;;;;;14.08;100.00;98413.28;4974255;28;96588;-28
2023/10/20 02:31:56;;;;;;;7.07;4.75;;;;;;;14.11;100.00;98412.09;4973775;28;96831;-28
2023/10/20 02:34:23;;;;;;;7.28;4.82;;;;;;;14.07;100.00;98395.28;4972346;28;100936;-28
2023/10/20 02:36:49;;;;;;;7.72;4.65;;;;;;;14.09;100.00;98408.72;4972400;28;101225;-28
2023/10/20 02:39:14;;;;;;;6.35;4.35;;;;;;;14.10;100.00;98396.78;4974044;28;96664;-28
2023/10/20 02:41:40;;;;;;;7.00;4.53;;;;;;;14.07;100.00;98394.44;4973092;28;96782;-29
2023/10/20 02:44:05;;;;;;;8.65;4.70;;;;;;;14.06;100.00;98396.28;4973425;28;97411;-29
2023/10/20 02:46:31;;;;;;;6.68;4.18;;;;;;;14.07;100.00;98383.53;4972966;28;98860;-28
2023/10/20 02:48:56;;;;;;;9.95;4.53;;;;;;;14.06;100.00;98382.66;4973008;28;96652;-28
2023/10/20 02:51:21;;;;;;;6.82;4.38;;;;;;;14.09;100.00;98386.94;4973604;28;96786;-28
2023/10/20 02:53:47;;;;;;;6.30;4.22;;;;;;;14.03;100.00;98370.25;4973800;28;97370;-28
2023/10/20 02:56:14;;;;;;;7.85;4.63;;;;;;;14.05;100.00;98385.59;4972953;28;97767;-28
2023/10/20 02:58:43;;;;;;;9.75;4.78;;;;;;;14.07;100.00;98381.66;4971789;28;96624;-29
2023/10/20 03:01:09;;;;;;;6.45;4.05;;;;;;;14.01;100.00;98377.78;4972289;28;96906;-29
2023/10/20 03:03:35;;;;;;;6.70;3.58;;;;;;;13.99;100.00;98374.41;4972794;28;99908;-28
2023/10/20 03:06:02;;;;;;;6.70;3.78;;;;;;;14.02;100.00;98373.19;4972269;28;101048;-28
2023/10/20 03:08:30;;;;;;;7.47;4.72;;;;;;;14.00;100.00;98378.78;4973473;28;96477;-29
2023/10/20 03:10:57;;;;;;;5.70;4.07;;;;;;;14.01;100.00;98366.91;4973505;28;96799;-28
2023/10/20 03:13:23;;;;;;;6.45;3.85;;;;;;;13.99;100.00;98362.63;4972580;28;99598;-28
2023/10/20 03:15:50;;;;;;;9.10;4.70;;;;;;;13.97;100.00;98354.66;4971553;28;100968;-28
2023/10/20 03:18:16;;;;;;;8.77;5.63;;;;;;;13.97;100.00;98343.78;4971985;28;96606;-28
2023/10/20 03:20:43;;;;;;;9.35;4.32;;;;;;;14.00;100.00;98337.13;4973201;28;96855;-28
2023/10/20 03:23:09;;;;;;;8.52;5.15;;;;;;;14.01;100.00;98336.09;4971622;28;101136;-28
2023/10/20 03:25:35;;;;;;;9.27;5.40;;;;;;;13.98;100.00;98323.69;4971702;28;100853;-28
2023/10/20 03:28:00;;;;;;;9.18;5.13;;;;;;;14.00;100.00;98334.41;4973239;28;96512;-28
2023/10/20 03:30:26;;;;;;;7.65;5.18;;;;;;;13.98;100.00;98326.41;4973313;28;96825;-28
2023/10/20 03:32:51;;;;;;;7.65;4.90;;;;;;;13.98;100.00;98328.28;4972723;28;99453;-28
2023/10/20 03:35:16;;;;;;;8.32;5.68;;;;;;;13.97;100.00;98327.44;4973136;28;98024;-28
2023/10/20 03:37:42;;;;;;;8.40;5.55;;;;;;;13.98;100.00;98337.28;4972362;28;96654;-28
2023/10/20 03:40:13;;;;;;;6.93;4.53;;;;;;;13.95;100.00;98331.38;4971522;28;97014;-28
2023/10/20 03:42:41;;;;;;;8.67;4.83;;;;;;;13.98;100.00;98329.13;4972643;28;99419;-28
2023/10/20 03:45:09;;;;;;;6.32;4.55;;;;;;;13.91;100.00;98319.13;4970934;28;100933;-28
2023/10/20 03:47:38;;;;;;;9.18;4.43;;;;;;;13.97;100.00;98327.44;4971385;28;96734;-28
2023/10/20 03:50:14;;;;;;;9.07;5.65;;;;;;;13.93;100.00;98300.75;4971346;28;96894;-28
2023/10/20 03:52:41;;;;;;;8.25;4.45;;;;;;;13.92;100.00;98293.59;4971104;28;100944;-28
2023/10/20 03:55:08;;;;;;;10.60;5.63;;;;;;;13.89;100.00;98302.13;4971660;28;100914;-28
2023/10/20 03:57:34;;;;;;;9.32;5.78;;;;;;;13.92;100.00;98301.78;4971277;28;96810;-28
2023/10/20 04:00:14;;;;;;;9.18;5.47;;;;;;;13.90;100.00;98303.84;4972746;28;96767;-29
2023/10/20 04:02:40;;;;;;;9.45;5.30;;;;;;;13.83;100.00;98290.09;4972006;28;99395;-28
2023/10/20 04:05:07;;;;;;;9.35;4.95;;;;;;;13.83;100.00;98292.84;4972608;28;97261;-29
2023/10/20 04:07:32;;;;;;;8.30;5.32;;;;;;;13.84;100.00;98286.34;4971039;28;96898;-29
2023/10/20 04:09:59;;;;;;;11.48;6.72;;;;;;;13.85;100.00;98274.44;4972447;28;96829;-28
2023/10/20 04:12:24;;;;;;;10.95;6.45;;;;;;;13.86;100.00;98270.69;4970939;28;101371;-28
2023/10/20 04:14:53;;;;;;;9.82;6.65;;;;;;;13.85;100.00;98258.13;4972217;28;98676;-28
2023/10/20 04:17:19;;;;;;;12.88;6.65;;;;;;;13.85;100.00;98252.69;4971159;28;97092;-28
2023/10/20 04:19:45;;;;;;;9.25;6.28;;;;;;;13.83;100.00;98252.00;4973000;28;96779;-28
2023/10/20 04:22:13;;;;;;;9.07;5.60;;;;;;;13.80;100.00;98255.94;4970813;28;101045;-28
2023/10/20 04:24:39;;;;;;;8.77;6.07;;;;;;;13.75;100.00;98262.94;4970654;28;100771;-28
2023/10/20 04:27:05;;;;;;;8.77;5.82;;;;;;;13.76;100.00;98264.63;4970387;28;96917;-28
2023/10/20 04:29:47;;;;;;;8.80;5.55;;;;;;;13.81;100.00;98264.94;4972362;28;96781;-28
2023/10/20 04:49:13;;;;;;;7.82;5.35;;;;;;;13.81;100.00;98222.25;4970575;28;96500;-30
2023/10/20 04:54:09;;;;;;;7.47;4.60;;;;;;;13.74;100.00;98202.22;4971751;28;97069;-28
2023/10/20 04:56:38;;;;;;;12.60;6.93;;;;;;;13.73;100.00;98206.00;4970600;28;100815;-28
2023/10/20 04:59:05;;;;;;;13.27;6.45;;;;;;;13.73;100.00;98192.38;4970505;28;96652;-28
2023/10/20 05:04:24;;;;;;;15.95;6.35;;;;;;;13.67;100.00;98190.38;4971412;28;98011;-28
2023/10/20 05:07:05;;;;;;;11.32;5.93;;;;;;;13.72;100.00;98190.69;4970454;28;100762;-28
2023/10/20 05:09:33;;;;;;;13.87;6.63;;;;;;;13.67;100.00;98179.50;4970532;28;96764;-28
2023/10/20 05:11:59;;;;;;;8.90;5.63;;;;;;;13.63;100.00;98169.16;4970857;28;96950;-28
2023/10/20 05:14:24;;;;;;;13.55;5.55;;;;;;;13.58;100.00;98166.97;4970151;28;100825;-28
2023/10/20 05:16:50;;;;;;;12.95;6.28;;;;;;;13.55;100.00;98154.59;4971730;28;97815;-29
2023/10/20 05:19:15;;;;;;;10.23;6.32;;;;;;;13.49;100.00;98144.44;4971077;28;96577;-28
2023/10/20 05:21:41;;;;;;;10.38;5.53;;;;;;;13.48;100.00;98145.44;4974634;28;96822;-28
2023/10/20 05:24:08;;;;;;;11.73;6.25;;;;;;;13.50;100.00;98135.25;4974900;28;97953;-28
2023/10/20 05:26:33;;;;;;;13.43;6.03;;;;;;;13.44;100.00;98135.09;4975015;28;97866;-28
2023/10/20 05:28:59;;;;;;;8.30;5.15;;;;;;;13.44;100.00;98154.16;4975093;28;96765;-28
2023/10/20 05:31:26;;;;;;;10.30;5.38;;;;;;;13.43;100.00;98156.03;4974742;28;96856;-28
2023/10/20 05:33:52;;;;;;;11.10;5.47;;;;;;;13.35;100.00;98150.66;4973407;28;100889;-28
2023/10/20 05:36:18;;;;;;;9.98;5.22;;;;;;;13.32;100.00;98140.09;4973661;28;99608;-28
2023/10/20 05:38:44;;;;;;;11.93;5.70;;;;;;;13.30;100.00;98153.03;4973544;28;96744;-28
2023/10/20 05:41:11;;;;;;;10.55;5.57;;;;;;;13.28;100.00;98150.50;4974670;28;96944;-28
2023/10/20 05:43:37;;;;;;;11.52;5.75;;;;;;;13.26;100.00;98162.56;4972447;28;100725;-28
2023/10/20 05:46:02;;;;;;;11.23;5.32;;;;;;;13.28;100.00;98157.81;4972383;28;101430;-28
2023/10/20 05:48:28;;;;;;;12.30;5.78;;;;;;;13.22;100.00;98137.59;4974891;28;96621;-28
2023/10/20 05:50:57;;;;;;;10.23;5.47;;;;;;;13.20;100.00;98141.50;4974659;28;96880;-28
2023/10/20 05:53:22;;;;;;;11.32;5.32;;;;;;;13.13;100.00;98139.53;4973010;28;101312;-28
2023/10/20 05:55:47;;;;;;;8.05;4.85;;;;;;;13.05;100.00;98130.56;4974625;28;98013;-28
2023/10/20 05:58:13;;;;;;;9.15;4.63;;;;;;;13.09;100.00;98145.50;4974814;28;96622;-32
2023/10/20 06:00:38;;;;;;;9.38;5.40;;;;;;;13.06;100.00;98152.13;4974842;28;96800;-29
2023/10/20 06:03:05;;;;;;;10.10;5.50;;;;;;;13.00;100.00;98141.09;4974154;28;99673;-28
2023/10/20 06:05:30;;;;;;;8.05;4.85;;;;;;;12.99;100.00;98145.72;4972898;28;100793;-28
2023/10/20 06:07:56;;;;;;;10.38;5.07;;;;;;;12.93;100.00;98138.25;4974030;28;96508;-29
2023/10/20 06:10:24;;;;;;;8.70;5.07;;;;;;;12.90;100.00;98131.28;4974397;28;96764;-28
2023/10/20 06:12:54;;;;;;;14.13;5.63;;;;;;;12.94;100.00;98137.22;4974095;28;99272;-28
2023/10/20 06:15:20;;;;;;;11.13;5.00;;;;;;;12.90;100.00;98136.72;4972684;28;102017;-28
2023/10/20 06:17:47;;;;;;;11.13;4.78;;;;;;;12.86;100.00;98138.09;4973010;28;96509;-28
2023/10/20 06:20:14;;;;;;;9.32;4.75;;;;;;;12.83;100.00;98153.91;4974197;28;96884;-28
2023/10/20 06:22:41;;;;;;;10.32;5.30;;;;;;;12.78;100.00;98150.88;4972542;28;101200;-28
2023/10/20 06:25:12;;;;;;;9.07;5.20;;;;;;;12.72;100.00;98153.25;4973037;28;101061;-30
2023/10/20 06:27:44;;;;;;;10.52;5.03;;;;;;;12.64;100.00;98138.88;4972488;28;97238;-28
2023/10/20 06:30:21;;;;;;;7.15;4.10;;;;;;;12.69;100.00;98150.06;4972700;28;96574;-28
2023/10/20 06:35:32;;;;;;;6.10;3.88;;;;;;;12.67;100.00;98138.50;4974088;28;97060;-28
2023/10/20 06:40:32;;;;;;;7.65;4.22;;;;;;;12.61;100.00;98123.78;4971606;28;97059;-32
2023/10/20 06:42:58;;;;;;;7.63;4.10;;;;;;;12.55;100.00;98116.31;4973150;28;97468;-28
2023/10/20 06:45:23;;;;;;;8.13;4.05;;;;;;;12.56;100.00;98123.47;4973064;28;97790;-28
2023/10/20 06:47:49;;;;;;;7.80;4.70;;;;;;;12.52;100.00;98117.50;4973759;28;96628;-28
2023/10/20 06:50:14;;;;;;;9.18;4.85;;;;;;;12.54;100.00;98109.19;4974050;28;98224;-28
2023/10/20 06:52:39;;;;;;;7.38;4.15;;;;;;;12.47;100.00;98122.63;4973437;28;97906;-28
2023/10/20 06:55:06;;;;;;;9.25;4.40;;;;;;;12.47;100.00;98133.47;4973735;28;97807;-29
2023/10/20 06:57:31;;;;;;;8.90;4.53;;;;;;;12.40;100.00;98120.78;4971461;28;98378;-28
2023/10/20 06:59:56;;;;;;;5.35;3.35;;;;;;;12.41;100.00;98127.91;4970968;28;97401;-29
2023/10/20 07:02:22;;;;;;;6.28;3.75;;;;;;;12.34;100.00;98125.03;4971294;28;97911;-31
2023/10/20 07:04:48;;;;;;;6.70;3.88;;;;;;;12.25;100.00;98113.34;4970765;28;99079;-29
2023/10/20 07:07:15;;;;;;;6.32;3.17;;;;;;;12.28;100.00;98123.00;4969484;28;96889;-29
2023/10/20 07:09:41;;;;;;;5.88;3.22;;;;;;;12.25;100.00;98118.78;4969586;28;97127;-29
2023/10/20 07:12:07;;;;;;;3.97;2.53;;;;;;;12.24;100.00;98114.34;4971140;28;97937;-29
2023/10/20 07:14:36;;;;;;;8.45;3.70;;;;;;;12.22;100.00;98108.25;4971666;28;100788;-29
2023/10/20 07:17:03;;;;;;;5.70;2.83;;;;;;;12.24;100.00;98116.22;4973430;28;96679;-29
2023/10/20 07:19:35;;;;;;;4.57;2.97;;;;;;;12.22;100.00;98110.97;4971879;28;96957;-29
2023/10/20 07:22:04;;;;;;;5.20;2.60;;;;;;;12.22;100.00;98123.69;4971287;28;101005;-28
2023/10/20 07:24:30;;;;;;;5.78;2.70;;;;;;;12.16;100.00;98114.38;4971538;28;98004;-28
2023/10/20 07:26:56;;;;;;;6.68;3.03;;;;;;;12.15;100.00;98107.25;4971886;28;96644;-28
2023/10/20 07:29:21;;;;;;;4.78;2.25;;;;;;;12.15;100.00;98104.53;4973325;28;96797;-28
2023/10/20 07:31:47;;;;;;;5.55;2.33;;;;;;;12.13;100.00;98109.28;4972788;28;99434;-29
2023/10/20 07:34:16;;;;;;;4.28;2.03;;;;;;;12.08;100.00;98106.25;4971334;28;100717;-28
2023/10/20 07:36:42;;;;;;;4.15;2.55;;;;;;;12.06;100.00;98101.00;4971641;28;96676;-29
2023/10/20 07:39:09;;;;;;;3.47;2.10;;;;;;;12.12;100.00;98110.31;4971917;28;96947;-28
2023/10/20 07:41:35;;;;;;;4.70;2.28;;;;;;;12.06;100.00;98103.72;4971358;28;101083;-28
2023/10/20 07:44:04;;;;;;;4.10;2.45;;;;;;;12.03;100.00;98111.34;4971933;28;97374;-27
2023/10/20 07:46:31;;;;;;;3.60;2.13;;;;;;;12.03;100.00;98111.34;4972027;28;96866;-29
2023/10/20 07:48:57;;;;;;;2.95;2.15;;;;;;;11.99;100.00;98110.84;4972879;28;96836;-28
2023/10/20 07:51:23;;;;;;;4.13;2.20;;;;;;;11.96;100.00;98097.59;4971095;28;100882;-28
2023/10/20 07:53:48;;;;;;;3.35;1.75;;;;;;;11.93;100.00;98097.94;4972425;28;99257;-28
2023/10/20 07:56:13;;;;;;;1.95;1.45;;;;;;;11.93;100.00;98089.81;4972975;28;96633;-29
2023/10/20 07:58:39;;;;;;;1.90;1.40;;;;;;;11.93;100.00;98088.97;4972911;28;96948;-29
2023/10/20 08:01:06;;;;;;;1.65;1.20;;;;;;;11.85;100.00;98089.81;4972746;28;97942;-28
2023/10/20 08:03:31;;;;;;;3.65;1.98;;;;;;;11.82;100.00;98085.56;4971215;28;100867;-28
2023/10/20 08:05:59;;;;;;;6.50;2.45;;;;;;;11.86;100.00;98080.63;4972555;28;96620;-28
2023/10/20 08:08:25;;;;;;;3.28;1.88;;;;;;;11.84;100.00;98078.09;4972618;28;96804;-28
2023/10/20 08:10:50;;;;;;;3.20;1.50;;;;;;;11.75;100.00;98056.56;4972178;28;98010;-28
2023/10/20 08:13:15;;;;;;;2.65;1.80;;;;;;;11.76;100.00;98059.13;4972584;28;97791;-28
2023/10/20 08:15:42;;;;;;;3.80;1.88;;;;;;;11.72;100.00;98044.22;4972727;28;96533;-28
2023/10/20 08:18:07;;;;;;;2.45;1.33;;;;;;;11.74;100.00;98055.72;4972399;28;96502;-29
2023/10/20 08:20:33;;;;;;;3.17;1.90;;;;;;;11.72;100.00;98071.31;4972377;28;97905;-28
2023/10/20 08:23:00;;;;;;;2.17;1.58;;;;;;;11.76;100.00;98079.97;4972404;28;98253;-28
2023/10/20 08:25:25;;;;;;;2.10;1.30;;;;;;;11.71;100.00;98071.50;4971007;28;96605;-28
2023/10/20 08:27:50;;;;;;;2.72;1.67;;;;;;;11.63;100.00;98059.66;4972820;28;96811;-28
2023/10/20 08:30:16;;;;;;;3.92;1.42;;;;;;;11.63;100.00;98070.50;4972272;28;98011;-28
2023/10/20 08:32:42;;;;;;;2.70;1.55;;;;;;;11.58;100.00;98066.59;4971751;28;99466;-28
2023/10/20 08:35:08;;;;;;;1.65;1.13;;;;;;;11.56;100.00;98055.06;4971545;28;96746;-28
2023/10/20 08:37:34;;;;;;;3.05;1.55;;;;;;;11.56;100.00;98050.50;4972334;28;96591;-28
2023/10/20 08:39:59;;;;;;;1.58;1.05;;;;;;;11.55;100.00;98061.50;4971136;28;100402;-28
2023/10/20 08:42:25;;;;;;;2.65;1.50;;;;;;;11.54;100.00;98057.97;4972007;28;99174;-29
2023/10/20 08:44:50;;;;;;;1.73;0.98;;;;;;;11.54;100.00;98066.09;4972075;28;96645;-30
2023/10/20 08:47:17;;;;;;;2.65;1.65;;;;;;;11.54;100.00;98059.81;4971774;28;96867;-28
2023/10/20 08:49:44;;;;;;;1.55;1.17;;;;;;;11.48;100.00;98061.34;4970675;28;100869;-28
2023/10/20 08:52:11;;;;;;;2.75;1.30;;;;;;;11.40;100.00;98054.06;4970800;28;100980;-28
2023/10/20 08:54:37;;;;;;;3.97;1.63;;;;;;;11.47;100.00;98056.94;4970883;28;96644;-28
2023/10/20 08:57:03;;;;;;;1.80;1.23;;;;;;;11.40;100.00;98050.50;4975481;28;96588;-28
2023/10/20 08:59:28;;;;;;;2.85;1.55;;;;;;;11.41;100.00;98052.19;4975039;28;98170;-29
2023/10/20 09:01:54;;;;;;;1.80;1.27;;;;;;;11.37;100.00;98048.97;4975294;28;98959;-28
2023/10/20 09:04:21;;;;;;;1.85;1.35;;;;;;;11.39;100.00;98057.78;4975584;28;96616;-27
2023/10/20 09:06:46;;;;;;;2.70;1.45;;;;;;;11.33;100.00;98055.75;4974033;28;96904;-30
2023/10/20 09:09:12;;;;;;;2.88;1.23;;;;;;;11.30;100.00;98061.50;4975321;28;98447;-28
2023/10/20 09:11:40;;;;;;;3.92;1.88;;;;;;;11.21;100.00;98049.81;4975346;28;97810;-28
2023/10/20 09:14:06;;;;;;;2.63;1.60;;;;;;;11.28;100.00;98063.53;4973948;28;96522;-28
2023/10/20 09:16:34;;;;;;;1.50;0.95;;;;;;;11.23;100.00;98057.78;4975917;28;96871;-28
2023/10/20 09:18:59;;;;;;;2.08;1.25;;;;;;;11.32;100.00;98064.03;4973614;28;101243;-28
2023/10/20 09:21:26;;;;;;;2.58;1.50;;;;;;;11.21;100.00;98055.22;4975137;28;97182;-28
2023/10/20 09:23:54;;;;;;;1.73;1.17;;;;;;;11.25;100.00;98064.72;4973233;28;96972;-28
2023/10/20 09:26:20;;;;;;;1.50;0.85;;;;;;;11.20;100.00;98047.25;4974962;28;96843;-28
2023/10/20 09:28:50;;;;;;;4.43;1.23;;;;;;;11.30;100.00;98057.94;4973165;28;100783;-28
2023/10/20 09:31:17;;;;;;;2.03;1.02;;;;;;;11.29;100.00;98039.97;4973369;28;101345;-28
2023/10/20 09:33:43;;;;;;;1.70;1.10;;;;;;;11.27;100.00;98049.16;4973522;28;96763;-28
2023/10/20 09:36:11;;;;;;;2.90;1.60;;;;;;;11.26;100.00;98042.00;4975138;28;96772;-28
2023/10/20 09:38:37;;;;;;;1.70;1.08;;;;;;;11.30;100.00;98047.97;4973301;28;100964;-28
2023/10/20 09:41:12;;;;;;;1.77;1.27;;;;;;;11.30;100.00;98050.66;4973689;28;100914;-28
2023/10/20 09:43:48;;;;;;;2.17;1.17;;;;;;;11.15;100.00;98039.63;4974820;28;96652;-28
2023/10/20 09:46:31;;;;;;;2.50;1.48;;;;;;;11.21;100.00;98043.53;4973144;28;98478;-28
2023/10/20 09:49:00;;;;;;;1.67;1.02;;;;;;;11.22;100.00;98037.09;4972703;28;101037;-28
2023/10/20 09:51:26;;;;;;;2.38;1.05;;;;;;;11.21;100.00;98024.56;4973088;28;101015;-28
2023/10/20 09:53:53;;;;;;;2.67;1.35;;;;;;;11.17;100.00;98017.78;4973046;28;96816;-28
2023/10/20 09:56:20;;;;;;;1.23;0.60;;;;;;;11.16;100.00;98016.13;4974845;28;96760;-28
2023/10/20 09:58:45;;;;;;;1.10;0.73;;;;;;;11.09;100.00;98023.22;4973048;28;101180;-28
2023/10/20 10:01:15;;;;;;;0.88;0.50;;;;;;;11.10;100.00;98023.03;4974246;28;99365;-28
2023/10/20 10:03:47;;;;;;;1.27;0.90;;;;;;;11.08;100.00;98024.22;4974478;28;96574;-29
2023/10/20 10:06:15;;;;;;;1.33;0.50;;;;;;;11.03;100.00;98013.88;4957387;28;96730;-28
2023/10/20 10:08:45;;;;;;;2.00;1.52;;;;;;;10.95;100.00;98016.59;4972968;28;99518;-28
2023/10/20 10:11:21;;;;;;;1.17;0.85;;;;;;;10.94;100.00;98020.28;4972827;28;100994;-28
2023/10/20 10:14:01;;;;;;;0.43;0.43;;;;;;;10.97;100.00;98031.66;4973970;28;96672;-28
2023/10/20 10:16:26;;;;;;;0.60;0.32;;;;;;;10.93;100.00;98030.28;4974373;28;96589;-29
2023/10/20 10:18:54;;;;;;;0.50;0.47;;;;;;;10.94;100.00;98021.16;4972417;28;101019;-28
2023/10/20 10:21:25;;;;;;;2.08;0.50;;;;;;;10.89;100.00;98020.78;4973908;28;99426;-28
2023/10/20 10:24:16;;;;;;;0.13;0.13;;;;;;;10.94;100.00;98026.59;4973984;28;96730;-29
2023/10/20 10:26:44;;;;;;;0.47;0.45;;;;;;;10.93;100.00;98015.91;4974408;28;96569;-28
2023/10/20 10:29:10;;;;;;;0.73;0.47;;;;;;;10.91;100.00;98007.94;4973904;28;97634;-28
2023/10/20 10:31:35;;;;;;;1.17;0.63;;;;;;;10.84;100.00;97999.66;4974085;28;98297;-28
2023/10/20 10:34:05;;;;;;;0.22;0.10;;;;;;;10.89;100.00;98004.53;4972505;28;96614;-28
2023/10/20 10:36:41;;;;;;;1.15;0.55;;;;;;;10.83;100.00;97999.81;4973848;28;96817;-28
2023/10/20 10:39:07;;;;;;;0.30;0.30;;;;;;;10.81;100.00;97991.00;4972091;28;100884;-28
2023/10/20 10:41:32;;;;;;;1.02;0.68;;;;;;;10.89;100.00;97995.56;4973832;28;97816;-28
2023/10/20 10:43:58;;;;;;;0.60;0.30;;;;;;;10.86;100.00;97993.22;4973537;28;96636;-28
2023/10/20 10:46:35;;;;;;;0.10;0.10;;;;;;;10.81;100.00;97993.72;4973273;28;96888;-28
2023/10/20 10:49:09;;;;;;;0.50;0.30;;;;;;;10.82;100.00;97984.56;4972278;28;101009;-28
2023/10/20 10:51:47;;;;;;;0.43;0.20;;;;;;;10.83;100.00;97973.56;4990711;28;97797;-28
2023/10/20 10:54:13;;;;;;;0.70;0.40;;;;;;;10.86;100.00;97964.25;4992035;28;96749;-27
2023/10/20 10:56:41;;;;;;;0.00;0.00;;;;;;;10.88;100.00;97961.41;4992748;28;96813;-28
2023/10/20 10:59:11;;;;;;;0.40;0.25;;;;;;;10.84;100.00;97955.47;4992036;28;101052;-28
2023/10/20 11:01:40;;;;;;;0.13;0.13;;;;;;;10.83;100.00;97959.19;4993207;28;99389;-28
2023/10/20 11:04:10;;;;;;;0.55;0.35;;;;;;;10.82;100.00;97960.19;4991677;28;97093;-28
2023/10/20 11:06:38;;;;;;;0.22;0.13;;;;;;;10.88;100.00;97951.41;4992010;28;97324;-28
2023/10/20 11:09:10;;;;;;;0.45;0.25;;;;;;;10.88;100.00;97961.41;4991897;28;101655;-28
2023/10/20 11:11:45;;;;;;;0.03;0.03;;;;;;;10.76;100.00;97950.06;4991709;28;100895;-28
2023/10/20 11:14:11;;;;;;;0.40;0.32;;;;;;;10.70;100.00;97954.28;4991834;28;96690;-29
2023/10/20 11:16:37;;;;;;;0.50;0.22;;;;;;;10.70;100.00;97927.22;4993304;28;96788;-28
2023/10/20 11:19:03;;;;;;;0.03;0.00;;;;;;;10.73;100.00;97926.88;4992088;28;99703;-28
2023/10/20 11:21:29;;;;;;;0.08;0.08;;;;;;;10.75;100.00;97934.81;4992084;28;101503;-28
2023/10/20 11:23:58;;;;;;;0.60;0.25;;;;;;;10.76;100.00;97928.38;4991592;28;96609;-28
2023/10/20 11:26:24;;;;;;;0.40;0.30;;;;;;;10.78;100.00;97927.22;4975616;28;96713;-28
2023/10/20 11:28:54;;;;;;;0.38;0.25;;;;;;;10.78;100.00;97935.31;4991024;28;101174;-28
2023/10/20 11:31:20;;;;;;;0.10;0.10;;;;;;;10.72;100.00;97927.03;4991536;28;101185;-28
2023/10/20 11:33:45;;;;;;;0.57;0.10;;;;;;;10.70;100.00;97904.69;4992900;28;96774;-28
2023/10/20 11:36:10;;;;;;;0.55;0.22;;;;;;;10.73;100.00;97909.78;4993243;28;96761;-28
2023/10/20 11:38:36;;;;;;;0.03;0.03;;;;;;;10.74;100.00;97919.59;4992918;28;97885;-28
2023/10/20 11:41:01;;;;;;;0.32;0.20;;;;;;;10.72;100.00;97917.03;4992721;28;99296;-28
2023/10/20 11:43:27;;;;;;;0.10;0.10;;;;;;;10.77;100.00;97919.25;4992662;28;96563;-29
2023/10/20 11:45:53;;;;;;;0.05;0.05;;;;;;;10.76;100.00;97920.28;4992371;28;96881;-28
2023/10/20 11:48:18;;;;;;;0.30;0.25;;;;;;;10.75;100.00;97902.31;4992424;28;97809;-28